Time;durP1;ratioP1;P1;durP2;ratioP2;P2;SDS_P1;SDS_P2;PMS_P1;PMS_P2;Temp;Humidity;BMP_temperature;BMP_pressure;BME280_temperature;BME280_humidity;BME280_pressure;Samples;Min_cycle;Max_cycle;Signal;HPM_P1;HPM_P2
2021/01/30 00:00:25;;;;;;;358.17;202.48;;;18.10;58.20;;;;;;5092641;28;20111;-55
2021/01/30 00:02:51;;;;;;;351.73;196.68;;;18.00;57.70;;;;;;5090148;28;20027;-58
2021/01/30 00:05:17;;;;;;;333.50;188.45;;;17.90;57.20;;;;;;5092659;28;20021;-58
2021/01/30 00:07:43;;;;;;;345.27;192.57;;;17.80;56.90;;;;;;5092292;28;20398;-58
2021/01/30 00:10:09;;;;;;;326.10;175.48;;;17.80;56.70;;;;;;5092407;28;20040;-59
2021/01/30 00:12:35;;;;;;;329.27;176.80;;;17.80;56.20;;;;;;5092220;28;20032;-58
2021/01/30 00:15:00;;;;;;;317.80;175.98;;;17.80;55.70;;;;;;5092504;28;20043;-58
2021/01/30 00:17:26;;;;;;;353.40;196.25;;;17.80;55.40;;;;;;5092337;28;20430;-58
2021/01/30 00:19:51;;;;;;;387.98;214.60;;;17.80;55.20;;;;;;5092435;28;20031;-59
2021/01/30 00:22:19;;;;;;;405.23;225.80;;;17.90;54.90;;;;;;5092349;28;20023;-58
2021/01/30 00:24:47;;;;;;;443.10;257.70;;;17.90;54.80;;;;;;5091336;28;20024;-57
2021/01/30 00:27:17;;;;;;;430.75;236.57;;;17.80;54.50;;;;;;5089959;28;20025;-60
2021/01/30 00:29:43;;;;;;;392.45;217.38;;;17.80;54.60;;;;;;5092313;28;20020;-59
2021/01/30 00:32:10;;;;;;;380.90;214.27;;;17.70;54.00;;;;;;5093246;28;20047;-58
2021/01/30 00:34:38;;;;;;;357.45;196.60;;;17.50;53.20;;;;;;5093110;28;20081;-58
2021/01/30 00:37:24;;;;;;;336.95;188.48;;;17.40;51.80;;;;;;5092538;28;20044;-58
2021/01/30 00:39:52;;;;;;;326.88;181.93;;;17.30;51.60;;;;;;5096146;28;20120;-60
2021/01/30 00:42:20;;;;;;;326.42;180.18;;;17.30;51.60;;;;;;5096468;28;20028;-59
2021/01/30 00:44:46;;;;;;;321.05;176.18;;;17.30;51.60;;;;;;5096208;28;20020;-59
2021/01/30 00:47:13;;;;;;;310.05;171.05;;;17.20;51.70;;;;;;5096106;28;20468;-59
2021/01/30 00:49:43;;;;;;;299.27;163.85;;;17.20;51.80;;;;;;5096086;28;20380;-59
2021/01/30 00:52:10;;;;;;;295.83;161.90;;;17.10;52.00;;;;;;5096216;28;20032;-60
2021/01/30 00:54:36;;;;;;;285.10;157.15;;;17.10;52.00;;;;;;5096170;28;20304;-59
2021/01/30 00:57:02;;;;;;;273.98;152.98;;;17.00;51.40;;;;;;5095929;28;20040;-59
2021/01/30 00:59:27;;;;;;;268.00;149.20;;;17.10;52.10;;;;;;5095975;28;20028;-59
2021/01/30 01:01:53;;;;;;;270.80;146.55;;;17.10;52.20;;;;;;5095988;28;20020;-59
2021/01/30 01:04:20;;;;;;;264.02;145.15;;;17.00;52.20;;;;;;5095817;28;20024;-59
2021/01/30 01:06:47;;;;;;;254.65;141.55;;;17.00;52.20;;;;;;5095821;28;20063;-60
2021/01/30 01:09:14;;;;;;;261.65;141.00;;;16.90;52.30;;;;;;5095668;28;20024;-59
2021/01/30 01:11:40;;;;;;;267.08;143.65;;;16.90;52.30;;;;;;5095813;28;20028;-59
2021/01/30 01:14:07;;;;;;;249.27;134.55;;;16.90;52.30;;;;;;5095550;28;20023;-59
2021/01/30 01:16:34;;;;;;;242.88;134.35;;;16.90;52.10;;;;;;5094461;28;20208;-59
2021/01/30 01:18:59;;;;;;;237.80;133.27;;;17.00;52.20;;;;;;5095583;28;20415;-59
2021/01/30 01:21:25;;;;;;;231.98;127.38;;;17.00;51.20;;;;;;5095651;28;20035;-59
2021/01/30 01:23:51;;;;;;;234.63;127.13;;;17.00;52.00;;;;;;5094269;28;20032;-60
2021/01/30 01:26:19;;;;;;;223.45;121.40;;;17.00;51.90;;;;;;5095531;28;20024;-59
2021/01/30 01:28:46;;;;;;;219.82;125.00;;;17.00;51.80;;;;;;5095336;28;20024;-59
2021/01/30 01:31:12;;;;;;;221.02;123.88;;;17.00;51.90;;;;;;5095504;28;20024;-59
2021/01/30 01:33:39;;;;;;;221.15;121.78;;;17.00;52.00;;;;;;5095247;28;20081;-59
2021/01/30 01:36:06;;;;;;;212.90;117.75;;;16.90;52.20;;;;;;5095200;28;20070;-59
2021/01/30 01:38:32;;;;;;;221.57;122.05;;;16.90;52.40;;;;;;5095123;28;20024;-60
2021/01/30 01:41:00;;;;;;;214.18;116.40;;;16.80;52.40;;;;;;5095231;28;20123;-59
2021/01/30 01:43:27;;;;;;;201.10;113.53;;;16.80;52.60;;;;;;5095181;28;20032;-59
2021/01/30 01:46:08;;;;;;;212.40;116.80;;;16.80;52.50;;;;;;5095235;28;20082;-59
2021/01/30 01:48:36;;;;;;;209.02;110.55;;;16.70;52.60;;;;;;5095109;28;20024;-59
2021/01/30 01:51:05;;;;;;;201.35;110.63;;;16.70;52.60;;;;;;5094230;28;20016;-59
2021/01/30 01:53:39;;;;;;;199.02;109.72;;;16.70;52.50;;;;;;5094816;28;20137;-59
2021/01/30 01:56:24;;;;;;;191.70;107.35;;;16.70;52.50;;;;;;5095072;28;20392;-59
2021/01/30 01:58:54;;;;;;;194.07;109.18;;;16.70;52.40;;;;;;5094222;28;20056;-59
2021/01/30 02:01:20;;;;;;;178.68;97.57;;;16.70;52.40;;;;;;5095006;28;20443;-59
2021/01/30 02:03:51;;;;;;;188.88;102.95;;;16.80;52.10;;;;;;5094600;28;20388;-59
2021/01/30 02:06:17;;;;;;;;;;;16.90;51.90;;;;;;5093057;28;20023;-59
2021/01/30 02:08:42;;;;;;;174.27;94.18;;;17.00;51.60;;;;;;5094725;28;20325;-59
2021/01/30 02:11:08;;;;;;;168.65;98.25;;;17.10;51.20;;;;;;5094685;28;20528;-59
2021/01/30 02:13:40;;;;;;;169.13;97.05;;;17.30;50.90;;;;;;5094568;28;20013;-60
2021/01/30 02:16:31;;;;;;;172.40;94.32;;;17.40;50.60;;;;;;5094688;28;20526;-59
2021/01/30 02:18:56;;;;;;;173.05;94.90;;;17.50;50.30;;;;;;5092262;28;20491;-60
2021/01/30 02:21:55;;;;;;;166.80;90.97;;;17.60;50.30;;;;;;5094407;28;20024;-59
2021/01/30 02:24:58;;;;;;;163.88;89.07;;;17.50;50.40;;;;;;5092463;28;20028;-60
2021/01/30 02:27:48;;;;;;;151.30;86.32;;;17.60;50.30;;;;;;5092915;28;20043;-61
2021/01/30 02:30:35;;;;;;;144.60;83.00;;;17.80;49.90;;;;;;5094210;28;20058;-59
2021/01/30 02:33:39;;;;;;;150.68;80.00;;;17.90;49.60;;;;;;5092254;28;20024;-59
2021/01/30 02:36:23;;;;;;;142.25;79.32;;;17.90;49.60;;;;;;5091653;28;20040;-59
2021/01/30 02:38:58;;;;;;;146.77;81.00;;;17.90;49.80;;;;;;5093363;28;20046;-59
2021/01/30 02:41:30;;;;;;;141.60;78.18;;;17.70;49.80;;;;;;5092467;28;20091;-59
2021/01/30 02:43:58;;;;;;;142.13;78.85;;;17.70;49.80;;;;;;5091611;28;20020;-59
2021/01/30 02:46:33;;;;;;;141.07;76.65;;;17.70;49.80;;;;;;5093861;28;20034;-60
2021/01/30 02:49:04;;;;;;;139.27;78.50;;;17.70;50.00;;;;;;5091814;28;20020;-60
2021/01/30 02:51:35;;;;;;;138.38;76.32;;;17.60;49.90;;;;;;5093906;28;20028;-59
2021/01/30 02:54:03;;;;;;;132.30;72.00;;;17.60;49.90;;;;;;5090967;28;20123;-60
2021/01/30 02:56:29;;;;;;;129.88;70.82;;;17.60;50.00;;;;;;5093858;28;20030;-59
2021/01/30 02:59:02;;;;;;;127.38;73.10;;;17.60;50.10;;;;;;5093768;28;20020;-60
2021/01/30 03:01:29;;;;;;;120.07;69.53;;;17.60;50.00;;;;;;5092763;28;20024;-60
2021/01/30 03:03:59;;;;;;;128.98;68.88;;;17.50;50.10;;;;;;5091325;28;20024;-59
2021/01/30 03:06:33;;;;;;;130.07;71.03;;;17.50;50.10;;;;;;5093513;28;20027;-59
2021/01/30 03:09:24;;;;;;;126.32;66.50;;;17.50;50.10;;;;;;5091401;28;20107;-59
2021/01/30 03:12:15;;;;;;;116.78;66.00;;;17.50;50.10;;;;;;5092689;28;20044;-60
2021/01/30 03:14:48;;;;;;;117.82;66.28;;;17.40;50.10;;;;;;5091553;28;20118;-59
2021/01/30 03:17:16;;;;;;;108.43;61.83;;;17.40;50.10;;;;;;5093239;28;20120;-59
2021/01/30 03:19:42;;;;;;;120.45;65.13;;;17.30;50.10;;;;;;5094974;28;20028;-59
2021/01/30 03:22:11;;;;;;;119.18;64.80;;;17.30;50.20;;;;;;5094485;28;20085;-58
2021/01/30 03:24:45;;;;;;;109.45;62.25;;;17.30;50.20;;;;;;5092294;28;20564;-58
2021/01/30 03:27:21;;;;;;;110.07;61.53;;;17.20;50.10;;;;;;5092271;28;20024;-59
2021/01/30 03:29:46;;;;;;;104.30;57.70;;;17.20;50.20;;;;;;5093233;28;20074;-59
2021/01/30 03:32:12;;;;;;;105.93;57.90;;;17.20;50.20;;;;;;5093322;28;20392;-59
2021/01/30 03:34:38;;;;;;;108.20;57.78;;;17.30;50.00;;;;;;5093655;28;20522;-59
2021/01/30 03:37:03;;;;;;;101.25;55.13;;;17.30;50.00;;;;;;5093512;28;20028;-59
2021/01/30 03:39:29;;;;;;;97.25;54.97;;;17.40;50.10;;;;;;5093832;28;20040;-59
2021/01/30 03:41:54;;;;;;;100.45;55.20;;;17.30;50.10;;;;;;5094073;28;20027;-59
2021/01/30 03:44:20;;;;;;;98.65;54.03;;;17.30;50.10;;;;;;5094874;28;20024;-59
2021/01/30 03:46:46;;;;;;;100.38;54.55;;;17.30;50.40;;;;;;5094061;28;20051;-58
2021/01/30 03:49:11;;;;;;;94.13;54.78;;;17.20;50.20;;;;;;5094080;28;20055;-58
2021/01/30 03:51:37;;;;;;;95.53;52.60;;;17.20;50.20;;;;;;5094079;28;20384;-59
2021/01/30 03:54:03;;;;;;;100.82;52.72;;;17.10;50.20;;;;;;5094122;28;20036;-59
2021/01/30 03:56:28;;;;;;;93.93;53.20;;;17.10;50.40;;;;;;5094275;28;20032;-59
2021/01/30 03:58:54;;;;;;;94.68;50.50;;;17.10;50.40;;;;;;5094148;28;20020;-59
2021/01/30 04:01:20;;;;;;;94.22;52.80;;;17.00;50.50;;;;;;5094231;28;20056;-59
2021/01/30 04:03:48;;;;;;;94.60;50.53;;;17.00;50.50;;;;;;5094035;28;20069;-58
2021/01/30 04:06:16;;;;;;;92.75;50.92;;;17.00;50.50;;;;;;5094074;28;20431;-58
2021/01/30 04:08:42;;;;;;;92.75;49.17;;;17.00;50.60;;;;;;5093813;28;20101;-59
2021/01/30 04:11:07;;;;;;;91.35;50.25;;;16.90;50.60;;;;;;5093656;28;20524;-59
2021/01/30 04:13:33;;;;;;;85.55;48.53;;;16.90;50.60;;;;;;5093341;28;20043;-59
2021/01/30 04:15:59;;;;;;;91.10;49.42;;;16.90;50.60;;;;;;5093705;28;20054;-58
2021/01/30 04:18:24;;;;;;;85.82;48.13;;;16.90;50.60;;;;;;5093899;28;20063;-58
2021/01/30 04:20:50;;;;;;;84.45;47.58;;;16.90;50.60;;;;;;5093556;28;20464;-58
2021/01/30 04:23:16;;;;;;;84.65;47.17;;;16.90;50.80;;;;;;5093783;28;20066;-58
2021/01/30 04:25:41;;;;;;;83.43;47.13;;;16.90;51.00;;;;;;5093508;28;20511;-58
2021/01/30 04:28:07;;;;;;;78.22;44.47;;;16.90;50.90;;;;;;5093826;28;20100;-58
2021/01/30 04:30:33;;;;;;;79.35;44.70;;;16.90;50.70;;;;;;5093703;28;20024;-58
2021/01/30 04:33:00;;;;;;;80.97;43.08;;;17.00;50.50;;;;;;5093602;28;20067;-58
2021/01/30 04:35:29;;;;;;;77.75;43.83;;;17.10;50.30;;;;;;5093548;28;20028;-58
2021/01/30 04:37:55;;;;;;;83.35;44.35;;;17.20;50.10;;;;;;5093499;28;20379;-59
2021/01/30 04:40:29;;;;;;;80.10;42.95;;;17.30;49.80;;;;;;5092351;28;20031;-59
2021/01/30 04:43:19;;;;;;;74.53;41.92;;;17.40;49.70;;;;;;5094004;28;20031;-59
2021/01/30 04:46:26;;;;;;;72.25;41.78;;;17.60;49.50;;;;;;5093738;28;20078;-59
2021/01/30 04:49:12;;;;;;;72.18;39.25;;;17.70;49.20;;;;;;5091680;28;20118;-59
2021/01/30 04:51:55;;;;;;;70.07;38.95;;;17.80;48.90;;;;;;5093570;28;20039;-59
2021/01/30 04:54:53;;;;;;;67.68;39.75;;;17.80;48.20;;;;;;5093420;28;20032;-59
2021/01/30 04:57:40;;;;;;;68.57;40.00;;;17.90;48.90;;;;;;5093363;28;20536;-59
2021/01/30 05:00:15;;;;;;;65.30;37.25;;;17.90;48.60;;;;;;5093381;28;20511;-59
2021/01/30 05:02:51;;;;;;;74.82;37.85;;;17.90;48.70;;;;;;5093119;28;20111;-59
2021/01/30 05:05:22;;;;;;;65.55;35.75;;;18.00;48.70;;;;;;5093195;28;20484;-59
2021/01/30 05:07:59;;;;;;;66.65;35.80;;;18.00;48.50;;;;;;5093497;28;20491;-58
2021/01/30 05:10:44;;;;;;;62.63;35.97;;;18.10;48.50;;;;;;5093456;28;20040;-59
2021/01/30 05:13:25;;;;;;;66.35;36.25;;;18.10;48.20;;;;;;5093344;28;20376;-59
2021/01/30 05:15:53;;;;;;;;;;;18.20;48.10;;;;;;5093626;28;20059;-59
2021/01/30 05:18:34;;;;;;;57.47;33.00;;;18.30;48.10;;;;;;5093564;28;19912;-59
2021/01/30 05:21:12;;;;;;;62.65;33.10;;;18.30;47.90;;;;;;5093256;28;20028;-59
2021/01/30 05:23:40;;;;;;;56.97;34.13;;;18.40;47.80;;;;;;5093155;28;20027;-59
2021/01/30 05:26:30;;;;;;;55.00;31.20;;;18.40;47.60;;;;;;5095430;28;20036;-59
2021/01/30 05:29:19;;;;;;;55.20;30.40;;;18.50;47.40;;;;;;5096740;28;20054;-59
2021/01/30 05:32:14;;;;;;;52.28;29.63;;;18.60;47.30;;;;;;5096910;28;20028;-59
2021/01/30 05:34:56;;;;;;;56.35;29.80;;;18.60;47.20;;;;;;5096772;28;20032;-59
2021/01/30 05:37:31;;;;;;;57.10;31.98;;;18.70;47.20;;;;;;5096709;28;20032;-59
2021/01/30 05:40:31;;;;;;;52.88;28.40;;;18.70;47.10;;;;;;5096377;28;20460;-59
2021/01/30 05:43:32;;;;;;;52.00;28.92;;;18.80;47.00;;;;;;5097033;28;20031;-58
2021/01/30 05:46:00;;;;;;;50.75;28.90;;;18.90;46.90;;;;;;5096736;28;20044;-59
2021/01/30 05:48:38;;;;;;;44.28;26.85;;;18.90;46.80;;;;;;5096147;28;20468;-59
2021/01/30 05:51:31;;;;;;;45.38;25.85;;;18.90;47.10;;;;;;5096839;28;20020;-59
2021/01/30 05:53:57;;;;;;;49.67;28.83;;;18.90;47.20;;;;;;5096258;28;20471;-59
2021/01/30 05:56:22;;;;;;;43.60;25.80;;;18.90;47.10;;;;;;5096411;28;20063;-59
2021/01/30 05:58:48;;;;;;;46.78;27.10;;;19.00;47.00;;;;;;5096187;28;20028;-59
2021/01/30 06:01:21;;;;;;;42.72;25.40;;;19.10;47.00;;;;;;5096294;28;20012;-59
2021/01/30 06:04:01;;;;;;;45.75;24.98;;;19.00;46.80;;;;;;5096064;28;20024;-59
2021/01/30 06:06:53;;;;;;;40.58;24.25;;;19.00;46.90;;;;;;5096381;28;20028;-59
2021/01/30 06:09:42;;;;;;;47.30;25.85;;;19.00;46.80;;;;;;5091670;28;20456;-59
2021/01/30 06:12:31;;;;;;;41.17;23.40;;;19.00;46.70;;;;;;5096693;28;20032;-59
2021/01/30 06:15:21;;;;;;;40.08;22.85;;;19.10;46.80;;;;;;5095906;28;20027;-59
2021/01/30 06:17:47;;;;;;;43.83;23.23;;;19.00;46.80;;;;;;5095921;28;20051;-59
2021/01/30 06:20:29;;;;;;;39.20;23.35;;;19.00;46.90;;;;;;5096089;28;20021;-59
2021/01/30 06:23:11;;;;;;;41.58;21.38;;;18.90;47.00;;;;;;5095893;28;20024;-59
2021/01/30 06:25:39;;;;;;;35.63;22.20;;;18.90;47.10;;;;;;5096090;28;20036;-59
2021/01/30 06:28:11;;;;;;;41.00;22.52;;;18.90;47.20;;;;;;5095604;28;20031;-59
2021/01/30 06:30:43;;;;;;;35.33;22.08;;;18.80;47.20;;;;;;5096004;28;20016;-59
2021/01/30 06:33:33;;;;;;;41.28;21.90;;;18.80;47.30;;;;;;5095641;28;20028;-59
2021/01/30 06:36:21;;;;;;;37.80;20.83;;;18.70;47.40;;;;;;5095630;28;20070;-59
2021/01/30 06:39:05;;;;;;;38.58;20.73;;;18.70;47.50;;;;;;5095591;28;20464;-59
2021/01/30 06:41:33;;;;;;;36.95;20.52;;;18.60;47.60;;;;;;5095321;28;20025;-59
2021/01/30 06:44:07;;;;;;;40.13;20.33;;;18.60;47.70;;;;;;5095307;28;20472;-59
2021/01/30 06:46:33;;;;;;;32.42;19.08;;;18.60;47.80;;;;;;5095331;28;20035;-59
2021/01/30 06:49:17;;;;;;;37.17;20.42;;;18.50;47.80;;;;;;5095001;28;20024;-59
2021/01/30 06:51:42;;;;;;;34.00;19.20;;;18.50;47.90;;;;;;5095111;28;20031;-59
2021/01/30 06:54:24;;;;;;;34.25;20.15;;;18.50;48.00;;;;;;5095241;28;20020;-59
2021/01/30 06:57:01;;;;;;;30.17;17.25;;;18.40;48.10;;;;;;5094849;28;20044;-59
2021/01/30 06:59:30;;;;;;;35.95;19.13;;;18.30;48.40;;;;;;5094891;28;20422;-59
2021/01/30 07:01:58;;;;;;;31.10;18.63;;;18.30;48.30;;;;;;5095112;28;20032;-59
2021/01/30 07:05:01;;;;;;;28.30;18.08;;;18.40;48.10;;;;;;5095037;28;20074;-59
2021/01/30 07:07:31;;;;;;;29.63;18.08;;;18.50;48.00;;;;;;5079562;28;20395;-59
2021/01/30 07:10:29;;;;;;;32.65;17.63;;;18.50;47.90;;;;;;5094539;28;20518;-59
2021/01/30 07:13:22;;;;;;;30.10;16.45;;;18.40;48.00;;;;;;5093329;28;20032;-59
2021/01/30 07:16:13;;;;;;;27.48;15.75;;;18.20;48.20;;;;;;5094510;28;20035;-59
2021/01/30 07:19:09;;;;;;;29.75;16.00;;;18.20;48.40;;;;;;5095012;28;20055;-59
2021/01/30 07:21:47;;;;;;;27.83;16.33;;;18.20;48.30;;;;;;5094780;28;20043;-59
2021/01/30 07:24:22;;;;;;;30.92;17.15;;;18.40;48.20;;;;;;5094646;28;20529;-59
2021/01/30 07:26:52;;;;;;;28.50;16.73;;;18.40;48.00;;;;;;5094427;28;20110;-58
2021/01/30 07:29:47;;;;;;;30.23;16.37;;;18.50;47.70;;;;;;5093424;28;20030;-59
2021/01/30 07:32:20;;;;;;;27.85;15.93;;;18.60;47.50;;;;;;5094582;28;20020;-59
2021/01/30 07:34:58;;;;;;;26.50;15.38;;;18.70;47.50;;;;;;5094636;28;20077;-59
2021/01/30 07:37:40;;;;;;;22.48;14.38;;;18.80;47.30;;;;;;5095096;28;20059;-60
2021/01/30 07:40:13;;;;;;;26.90;14.73;;;18.80;47.00;;;;;;5094681;28;20028;-59
2021/01/30 07:42:58;;;;;;;26.52;15.18;;;19.00;47.00;;;;;;5094541;28;20024;-59
2021/01/30 07:45:31;;;;;;;24.17;13.70;;;19.00;46.90;;;;;;5094306;28;20103;-59
2021/01/30 07:48:37;;;;;;;26.60;13.90;;;19.00;46.80;;;;;;5093905;28;20032;-59
2021/01/30 07:51:15;;;;;;;27.20;14.50;;;19.00;46.80;;;;;;5093119;28;20044;-60
2021/01/30 07:53:42;;;;;;;25.52;13.07;;;19.00;46.80;;;;;;5094479;28;20028;-59
2021/01/30 07:56:19;;;;;;;26.13;13.88;;;19.10;47.10;;;;;;5093835;28;20119;-60
2021/01/30 07:58:48;;;;;;;26.85;13.18;;;19.10;47.30;;;;;;5094053;28;20031;-60
2021/01/30 08:01:34;;;;;;;20.45;11.80;;;19.00;47.80;;;;;;5093901;28;20028;-60
2021/01/30 08:04:16;;;;;;;20.75;10.32;;;19.00;47.60;;;;;;5094003;28;20054;-59
2021/01/30 08:07:13;;;;;;;22.95;9.52;;;18.90;46.80;;;;;;5093812;28;20460;-58
2021/01/30 08:10:13;;;;;;;16.80;9.15;;;18.80;45.70;;;;;;5094125;28;20048;-58
2021/01/30 08:12:57;;;;;;;17.50;9.40;;;18.70;45.90;;;;;;5093849;28;20032;-60
2021/01/30 08:15:47;;;;;;;21.05;10.23;;;18.80;46.20;;;;;;5093884;28;20559;-59
2021/01/30 08:18:13;;;;;;;17.97;10.67;;;18.80;46.60;;;;;;5094027;28;20029;-59
2021/01/30 08:20:53;;;;;;;22.60;9.65;;;18.70;46.70;;;;;;5093681;28;20325;-62
2021/01/30 08:23:31;;;;;;;17.83;9.25;;;18.70;46.80;;;;;;5093913;28;20024;-59
2021/01/30 08:26:08;;;;;;;21.02;10.30;;;18.70;46.90;;;;;;5094050;28;20036;-60
2021/01/30 08:28:45;;;;;;;17.83;9.15;;;18.80;47.00;;;;;;5093185;28;20031;-55
2021/01/30 08:31:57;;;;;;;64.13;35.55;;;18.80;46.70;;;;;;5092369;28;20035;-56
2021/01/30 08:34:34;;;;;;;116.18;64.65;;;18.80;46.40;;;;;;5093466;28;20032;-60
2021/01/30 08:37:21;;;;;;;101.50;54.40;;;18.80;45.90;;;;;;5092104;28;20157;-60
2021/01/30 08:40:05;;;;;;;69.07;39.28;;;18.80;46.00;;;;;;5086346;28;20032;-58
2021/01/30 08:42:36;;;;;;;55.78;29.08;;;18.50;42.70;;;;;;5088337;28;20074;-58
2021/01/30 08:45:10;;;;;;;72.97;43.90;;;18.20;41.80;;;;;;5070183;28;20056;-59
2021/01/30 08:48:02;;;;;;;85.20;50.28;;;18.00;41.20;;;;;;5085067;28;20036;-56
2021/01/30 08:50:30;;;;;;;133.10;79.43;;;18.00;40.90;;;;;;5071443;28;20025;-59
2021/01/30 08:53:14;;;;;;;260.10;154.65;;;18.00;40.20;;;;;;5071868;28;20388;-61
2021/01/30 08:55:45;;;;;;;213.88;123.07;;;18.20;39.90;;;;;;5073255;28;20032;-61
2021/01/30 08:58:29;;;;;;;154.95;89.43;;;18.20;39.70;;;;;;5073066;28;20107;-60
2021/01/30 09:00:58;;;;;;;133.07;79.75;;;18.20;39.40;;;;;;5075583;28;20024;-60
2021/01/30 09:03:47;;;;;;;146.80;82.43;;;18.20;38.80;;;;;;5077092;28;20052;-60
2021/01/30 09:06:40;;;;;;;71.82;40.47;;;18.10;38.60;;;;;;5076982;28;20032;-60
2021/01/30 09:09:14;;;;;;;39.08;19.38;;;18.10;38.80;;;;;;5077034;28;20024;-60
2021/01/30 09:11:43;;;;;;;20.52;14.27;;;18.00;38.20;;;;;;5076991;28;20048;-61
2021/01/30 09:14:30;;;;;;;27.13;11.85;;;18.20;38.30;;;;;;5076917;28;20025;-63
2021/01/30 09:17:01;;;;;;;13.82;7.40;;;18.50;37.70;;;;;;5076803;28;20036;-60
2021/01/30 09:19:36;;;;;;;9.23;4.13;;;18.50;37.80;;;;;;5076604;28;20469;-60
2021/01/30 09:22:32;;;;;;;7.97;3.72;;;18.30;37.40;;;;;;5076763;28;20512;-60
2021/01/30 09:25:26;;;;;;;6.85;3.25;;;18.20;36.40;;;;;;5076626;28;20452;-60
2021/01/30 09:28:06;;;;;;;8.60;3.35;;;18.30;37.40;;;;;;5076926;28;20032;-62
2021/01/30 09:30:43;;;;;;;16.23;5.95;;;18.00;37.80;;;;;;5076599;28;20032;-64
2021/01/30 09:33:21;;;;;;;23.73;10.07;;;17.70;37.40;;;;;;5076294;28;20050;-65
2021/01/30 09:35:47;;;;;;;352.17;194.45;;;17.50;37.80;;;;;;5076480;28;20376;-67
2021/01/30 09:38:20;;;;;;;76.80;44.05;;;17.30;38.40;;;;;;5076584;28;20028;-68
2021/01/30 09:40:46;;;;;;;37.42;20.30;;;17.10;38.30;;;;;;5076064;28;20033;-69
2021/01/30 09:43:12;;;;;;;52.05;27.10;;;17.10;38.60;;;;;;5076179;28;20036;-64
2021/01/30 09:45:45;;;;;;;83.38;47.05;;;17.40;38.30;;;;;;5074843;28;20090;-69
2021/01/30 09:48:13;;;;;;;167.32;83.78;;;17.80;38.00;;;;;;5076324;28;20063;-60
2021/01/30 09:50:54;;;;;;;132.23;73.65;;;18.10;38.00;;;;;;5076425;28;20025;-59
2021/01/30 09:53:32;;;;;;;121.13;58.72;;;19.90;38.00;;;;;;5076335;28;20040;-61
2021/01/30 09:56:07;;;;;;;91.03;49.90;;;18.60;38.30;;;;;;5076027;28;20140;-66
2021/01/30 09:58:35;;;;;;;78.15;44.20;;;18.80;38.20;;;;;;5076330;28;20040;-67
2021/01/30 10:01:07;;;;;;;81.35;43.22;;;18.90;38.10;;;;;;5076447;28;20063;-65
2021/01/30 10:03:41;;;;;;;70.15;40.35;;;19.00;37.70;;;;;;5074862;28;20534;-70
2021/01/30 10:06:24;;;;;;;65.43;35.00;;;19.10;37.50;;;;;;5075863;28;20477;-66
2021/01/30 10:08:50;;;;;;;61.25;34.15;;;18.70;36.40;;;;;;5076289;28;20063;-62
2021/01/30 10:11:18;;;;;;;50.67;29.88;;;19.20;37.60;;;;;;5074924;28;20442;-70
2021/01/30 10:13:49;;;;;;;47.20;26.65;;;19.20;37.50;;;;;;5074414;28;20460;-73
2021/01/30 10:16:21;;;;;;;42.97;25.60;;;19.30;37.60;;;;;;5075931;28;20460;-69
2021/01/30 10:19:08;;;;;;;44.25;25.92;;;19.40;37.80;;;;;;5075602;28;20120;-61
2021/01/30 10:21:37;;;;;;;43.35;24.75;;;19.40;38.20;;;;;;5075875;28;20465;-68
2021/01/30 10:24:16;;;;;;;39.78;22.80;;;19.20;38.30;;;;;;5075600;28;20050;-69
2021/01/30 10:26:43;;;;;;;42.05;23.55;;;19.40;39.10;;;;;;5075547;28;20025;-69
2021/01/30 10:29:12;;;;;;;40.00;22.30;;;19.50;39.30;;;;;;5075320;28;20453;-68
2021/01/30 10:31:48;;;;;;;39.28;22.58;;;19.50;39.50;;;;;;5076715;28;20089;-73
2021/01/30 10:34:29;;;;;;;35.95;20.15;;;19.60;39.80;;;;;;5093235;28;20024;-65
2021/01/30 10:37:17;;;;;;;34.88;18.85;;;19.60;39.80;;;;;;5095810;28;20525;-63
2021/01/30 10:39:51;;;;;;;28.67;14.25;;;19.70;39.90;;;;;;5095242;28;20031;-71
2021/01/30 10:42:22;;;;;;;13.18;7.10;;;19.50;38.80;;;;;;5095602;28;20024;-61
2021/01/30 10:44:57;;;;;;;15.25;6.75;;;18.90;36.30;;;;;;5095840;28;20024;-68
2021/01/30 10:47:24;;;;;;;13.00;5.63;;;18.60;36.80;;;;;;5095425;28;20024;-63
2021/01/30 10:50:00;;;;;;;15.18;5.85;;;18.70;36.70;;;;;;5095299;28;20028;-70
2021/01/30 10:52:27;;;;;;;250.85;141.75;;;18.90;37.10;;;;;;5095525;28;20139;-64
2021/01/30 10:54:53;;;;;;;229.55;129.57;;;18.90;37.20;;;;;;5095547;28;20036;-64
2021/01/30 10:57:18;;;;;;;176.07;98.03;;;19.00;37.20;;;;;;5095078;28;20036;-62
2021/01/30 11:00:01;;;;;;;155.85;84.30;;;19.10;37.30;;;;;;5094795;28;20028;-64
2021/01/30 11:02:27;;;;;;;132.98;75.25;;;19.20;37.40;;;;;;5095078;28;20024;-67
2021/01/30 11:05:19;;;;;;;123.75;67.00;;;19.20;37.60;;;;;;5095067;28;20028;-65
2021/01/30 11:07:50;;;;;;;98.50;56.58;;;19.30;38.10;;;;;;5093919;28;20040;-66
2021/01/30 11:10:48;;;;;;;90.57;51.95;;;19.30;38.30;;;;;;5094883;28;20121;-65
2021/01/30 11:13:26;;;;;;;106.85;56.15;;;19.30;38.60;;;;;;5093366;28;20036;-65
2021/01/30 11:16:04;;;;;;;185.07;95.75;;;19.30;38.80;;;;;;5094960;28;20063;-65
2021/01/30 11:18:34;;;;;;;222.43;123.45;;;19.30;39.00;;;;;;5094578;28;20488;-63
2021/01/30 11:21:01;;;;;;;237.45;124.53;;;19.30;39.20;;;;;;5094424;28;20020;-61
2021/01/30 11:23:48;;;;;;;201.82;113.20;;;19.20;39.40;;;;;;5093796;28;20024;-64
2021/01/30 11:26:37;;;;;;;183.55;101.53;;;19.20;39.80;;;;;;5094671;28;20035;-65
2021/01/30 11:29:06;;;;;;;168.80;93.38;;;19.20;40.00;;;;;;5094206;28;20032;-66
2021/01/30 11:31:37;;;;;;;156.38;88.60;;;19.30;40.20;;;;;;5094361;28;20464;-66
2021/01/30 11:34:03;;;;;;;;;;;19.40;40.20;;;;;;5094673;28;20141;-65
2021/01/30 11:36:28;;;;;;;143.73;79.00;;;19.40;40.20;;;;;;5094495;28;20358;-64
2021/01/30 11:38:57;;;;;;;199.80;106.57;;;19.40;40.40;;;;;;5090623;28;20373;-68
2021/01/30 11:41:23;;;;;;;196.95;112.80;;;19.40;40.50;;;;;;5082837;28;20025;-65
2021/01/30 11:43:49;;;;;;;178.05;102.00;;;19.30;40.70;;;;;;5073810;28;20055;-67
2021/01/30 11:46:15;;;;;;;164.18;93.55;;;19.30;40.90;;;;;;5076947;28;20391;-67
2021/01/30 11:48:41;;;;;;;166.82;92.07;;;19.30;41.10;;;;;;5093658;28;20023;-67
2021/01/30 11:51:11;;;;;;;162.57;87.63;;;19.20;41.20;;;;;;5093288;28;20507;-63
2021/01/30 11:53:36;;;;;;;145.82;82.30;;;19.20;41.30;;;;;;5094233;28;20024;-60
2021/01/30 11:56:02;;;;;;;146.68;81.03;;;19.10;41.50;;;;;;5093995;28;20063;-60
2021/01/30 11:58:29;;;;;;;145.95;78.97;;;19.10;41.70;;;;;;5093954;28;20024;-61
2021/01/30 12:00:54;;;;;;;143.27;78.38;;;19.10;42.70;;;;;;5093787;28;20150;-62
2021/01/30 12:03:22;;;;;;;142.98;75.30;;;19.00;42.90;;;;;;5092727;28;20452;-61
2021/01/30 12:05:48;;;;;;;135.38;70.85;;;19.00;43.10;;;;;;5093973;28;20030;-63
2021/01/30 12:08:14;;;;;;;133.82;70.00;;;18.90;43.20;;;;;;5094254;28;20511;-62
2021/01/30 12:10:39;;;;;;;145.70;71.22;;;18.90;43.40;;;;;;5093582;28;20416;-63
2021/01/30 12:13:05;;;;;;;140.82;70.88;;;18.80;43.70;;;;;;5093680;28;20102;-67
2021/01/30 12:15:31;;;;;;;124.20;65.13;;;18.80;43.90;;;;;;5093469;28;20024;-63
2021/01/30 12:17:57;;;;;;;125.80;68.45;;;18.70;44.30;;;;;;5093860;28;20027;-64
2021/01/30 12:20:26;;;;;;;124.95;65.45;;;18.70;44.80;;;;;;5093798;28;20540;-63
2021/01/30 12:22:51;;;;;;;118.80;63.22;;;18.70;45.30;;;;;;5093583;28;20028;-65
2021/01/30 12:25:18;;;;;;;115.50;60.47;;;18.70;45.90;;;;;;5093654;28;20020;-64
2021/01/30 12:27:50;;;;;;;121.32;59.33;;;18.70;46.80;;;;;;5092289;28;20056;-65
2021/01/30 12:30:17;;;;;;;124.20;61.00;;;18.60;47.30;;;;;;5094325;28;20023;-65
2021/01/30 12:32:43;;;;;;;111.70;63.20;;;18.70;48.20;;;;;;5093378;28;20027;-65
2021/01/30 12:35:09;;;;;;;126.65;59.95;;;18.70;48.40;;;;;;5095825;28;20024;-65
2021/01/30 12:37:35;;;;;;;111.50;57.75;;;18.70;48.70;;;;;;5098037;28;20020;-65
2021/01/30 12:40:02;;;;;;;114.45;56.90;;;18.70;48.50;;;;;;5097688;28;20073;-65
2021/01/30 12:42:28;;;;;;;103.50;56.25;;;18.70;48.90;;;;;;5097702;28;20032;-66
2021/01/30 12:44:53;;;;;;;112.63;58.40;;;18.70;49.30;;;;;;5096481;28;20024;-66
2021/01/30 12:47:29;;;;;;;106.22;54.70;;;18.70;50.40;;;;;;5097677;28;20032;-62
2021/01/30 12:49:55;;;;;;;106.15;53.20;;;18.70;50.60;;;;;;5097676;28;20024;-63
2021/01/30 12:52:21;;;;;;;101.00;54.13;;;18.60;50.50;;;;;;5097628;28;20024;-64
2021/01/30 12:54:46;;;;;;;98.82;52.90;;;18.60;51.90;;;;;;5097481;28;20028;-66